Time;durP1;ratioP1;P1;durP2;ratioP2;P2;SDS_P1;SDS_P2;PMS_P1;PMS_P2;Temp;Humidity;BMP_temperature;BMP_pressure;BME280_temperature;BME280_humidity;BME280_pressure;Samples;Min_cycle;Max_cycle;Signal;HPM_P1;HPM_P2
2023/09/25 00:00:24;;;;;;;17.52;9.60;;;;;;;;;;4845288;29;20497;-80
2023/09/25 00:02:55;;;;;;;17.52;9.40;;;;;;;;;;4845380;29;20050;-79
2023/09/25 00:05:33;;;;;;;21.13;9.55;;;;;;;;;;4849372;29;20390;-80
2023/09/25 00:08:09;;;;;;;16.02;10.32;;;;;;;;;;4827908;29;20513;-80
2023/09/25 00:10:43;;;;;;;21.25;9.27;;;;;;;;;;4843286;29;20057;-79
2023/09/25 00:13:17;;;;;;;23.23;9.57;;;;;;;;;;4856954;29;20046;-79
2023/09/25 00:16:00;;;;;;;18.63;9.85;;;;;;;;;;4826078;29;20065;-79
2023/09/25 00:18:32;;;;;;;16.95;9.65;;;;;;;;;;4827293;29;20509;-79
2023/09/25 00:21:10;;;;;;;18.38;9.73;;;;;;;;;;4843526;29;20042;-79
2023/09/25 00:23:42;;;;;;;15.77;9.25;;;;;;;;;;4843274;29;20053;-78
2023/09/25 00:26:17;;;;;;;18.40;10.43;;;;;;;;;;4826697;29;20069;-77
2023/09/25 00:28:54;;;;;;;18.73;9.93;;;;;;;;;;4843130;29;20042;-78
2023/09/25 00:31:26;;;;;;;18.85;10.43;;;;;;;;;;4843425;29;20054;-77
2023/09/25 00:33:57;;;;;;;17.70;9.43;;;;;;;;;;4842849;29;20050;-77
2023/09/25 00:36:34;;;;;;;20.42;11.00;;;;;;;;;;4842948;29;20409;-78
2023/09/25 00:39:12;;;;;;;22.00;10.20;;;;;;;;;;4843129;29;20052;-77
2023/09/25 00:41:44;;;;;;;18.67;9.75;;;;;;;;;;4854432;29;20046;-77
2023/09/25 00:44:17;;;;;;;19.35;10.15;;;;;;;;;;4843106;29;20046;-78
2023/09/25 00:46:51;;;;;;;15.73;9.02;;;;;;;;;;4855817;29;20064;-79
2023/09/25 00:49:31;;;;;;;21.80;9.68;;;;;;;;;;4842522;29;20544;-79
2023/09/25 00:52:07;;;;;;;21.65;10.15;;;;;;;;;;4842627;29;20087;-79
2023/09/25 00:54:49;;;;;;;22.60;10.48;;;;;;;;;;4854587;29;20508;-78
2023/09/25 01:01:23;;;;;;;22.90;10.52;;;;;;;;;;4858314;29;20053;-78
2023/09/25 01:03:59;;;;;;;21.45;10.15;;;;;;;;;;4854154;29;20057;-80
2023/09/25 01:06:35;;;;;;;24.40;10.40;;;;;;;;;;4857164;29;20053;-78
2023/09/25 01:09:12;;;;;;;22.30;9.82;;;;;;;;;;4834543;29;20053;-78
2023/09/25 01:11:45;;;;;;;23.33;11.23;;;;;;;;;;4843797;29;20064;-79
2023/09/25 01:14:20;;;;;;;24.17;10.88;;;;;;;;;;4852877;29;20547;-78
2023/09/25 01:16:54;;;;;;;16.85;10.25;;;;;;;;;;4859940;29;20049;-78
2023/09/25 01:19:25;;;;;;;21.33;10.63;;;;;;;;;;4860520;29;20060;-79
2023/09/25 01:21:58;;;;;;;20.75;9.95;;;;;;;;;;4859307;29;20056;-78
2023/09/25 01:24:30;;;;;;;21.50;9.88;;;;;;;;;;4854480;29;20084;-79
2023/09/25 01:27:04;;;;;;;19.75;9.98;;;;;;;;;;4860422;29;20041;-78
2023/09/25 01:29:38;;;;;;;17.17;9.88;;;;;;;;;;4859553;29;20065;-78
2023/09/25 01:32:09;;;;;;;20.35;10.88;;;;;;;;;;4860584;29;20408;-77
2023/09/25 01:34:46;;;;;;;19.80;9.43;;;;;;;;;;4867499;29;20049;-78
2023/09/25 01:37:25;;;;;;;27.15;10.35;;;;;;;;;;4825663;29;20069;-79
2023/09/25 01:39:57;;;;;;;27.77;10.82;;;;;;;;;;4841955;29;20050;-79
2023/09/25 01:42:29;;;;;;;20.10;10.63;;;;;;;;;;4839532;29;20054;-79
2023/09/25 01:45:08;;;;;;;24.55;10.73;;;;;;;;;;4841527;29;20065;-78
2023/09/25 01:47:42;;;;;;;23.23;10.65;;;;;;;;;;4840187;29;20050;-78
2023/09/25 01:50:14;;;;;;;22.77;11.48;;;;;;;;;;4842080;29;20394;-77
2023/09/25 01:52:55;;;;;;;25.30;10.45;;;;;;;;;;4841790;29;20113;-78
2023/09/25 01:55:35;;;;;;;24.25;10.02;;;;;;;;;;4841421;29;20077;-79
2023/09/25 01:58:08;;;;;;;23.50;10.60;;;;;;;;;;4855688;29;20058;-78
2023/09/25 02:00:38;;;;;;;19.95;10.32;;;;;;;;;;4825450;29;20053;-79
2023/09/25 02:03:08;;;;;;;22.55;11.07;;;;;;;;;;4841523;29;20053;-79
2023/09/25 02:05:44;;;;;;;24.60;9.95;;;;;;;;;;4841351;29;20050;-79
2023/09/25 02:08:17;;;;;;;22.25;10.30;;;;;;;;;;4825034;29;20054;-78
2023/09/25 02:10:49;;;;;;;19.30;10.35;;;;;;;;;;4858571;29;20520;-78
2023/09/25 02:13:19;;;;;;;24.23;11.23;;;;;;;;;;4860117;29;20061;-78
2023/09/25 02:15:49;;;;;;;22.77;10.98;;;;;;;;;;4843203;29;20060;-78
2023/09/25 02:18:24;;;;;;;21.98;10.32;;;;;;;;;;4873721;29;20069;-79
2023/09/25 02:20:56;;;;;;;24.20;11.30;;;;;;;;;;4842245;29;20069;-78
2023/09/25 02:23:31;;;;;;;24.80;9.88;;;;;;;;;;4843041;29;20519;-78
2023/09/25 02:26:02;;;;;;;19.70;10.43;;;;;;;;;;4843121;29;20054;-79
2023/09/25 02:28:33;;;;;;;21.83;10.93;;;;;;;;;;4859605;29;20058;-79
2023/09/25 02:31:05;;;;;;;20.55;10.82;;;;;;;;;;4859991;29;20045;-78
2023/09/25 02:33:38;;;;;;;24.17;10.20;;;;;;;;;;4859638;29;20049;-78
2023/09/25 02:36:12;;;;;;;30.48;10.30;;;;;;;;;;4825334;29;20057;-79
2023/09/25 02:38:46;;;;;;;20.55;10.07;;;;;;;;;;4841686;29;20049;-78
2023/09/25 02:41:18;;;;;;;29.13;10.27;;;;;;;;;;4825126;29;20401;-79
2023/09/25 02:43:48;;;;;;;18.20;10.52;;;;;;;;;;4855028;29;20062;-77
2023/09/25 02:46:18;;;;;;;22.02;10.52;;;;;;;;;;4823942;29;20042;-78
2023/09/25 02:48:50;;;;;;;20.83;11.55;;;;;;;;;;4824105;29;20130;-78
2023/09/25 02:51:23;;;;;;;22.15;11.32;;;;;;;;;;4837127;29;20058;-78
2023/09/25 02:53:55;;;;;;;20.90;10.35;;;;;;;;;;4824173;29;20057;-78
2023/09/25 02:56:25;;;;;;;22.90;10.98;;;;;;;;;;4837332;29;20387;-80
2023/09/25 02:58:55;;;;;;;26.83;11.10;;;;;;;;;;4828848;29;20409;-78
2023/09/25 03:01:26;;;;;;;21.08;11.57;;;;;;;;;;4842386;29;20500;-79
2023/09/25 03:03:58;;;;;;;24.00;12.18;;;;;;;;;;4842159;29;20054;-78
2023/09/25 03:06:29;;;;;;;26.02;10.77;;;;;;;;;;4843360;29;20050;-79
2023/09/25 03:09:04;;;;;;;23.67;12.13;;;;;;;;;;4860849;29;20049;-78
2023/09/25 03:11:34;;;;;;;21.83;11.75;;;;;;;;;;4860344;29;20140;-78
2023/09/25 03:14:07;;;;;;;21.48;11.40;;;;;;;;;;4861094;29;20056;-79
2023/09/25 03:16:41;;;;;;;23.38;10.82;;;;;;;;;;4863986;29;20056;-78
2023/09/25 03:19:12;;;;;;;18.85;10.88;;;;;;;;;;4863584;29;20076;-78
2023/09/25 03:21:42;;;;;;;24.23;10.57;;;;;;;;;;4863661;29;20404;-78
2023/09/25 03:24:14;;;;;;;20.60;11.27;;;;;;;;;;4863775;29;20056;-78
2023/09/25 03:26:46;;;;;;;19.38;10.18;;;;;;;;;;4847129;29;20068;-79
2023/09/25 03:29:20;;;;;;;27.05;11.38;;;;;;;;;;4846335;29;20409;-79
2023/09/25 03:31:50;;;;;;;21.38;11.35;;;;;;;;;;4863625;29;20045;-79
2023/09/25 03:34:24;;;;;;;25.45;11.55;;;;;;;;;;4846128;29;20477;-79
2023/09/25 03:36:54;;;;;;;24.85;10.73;;;;;;;;;;4846483;29;20064;-77
2023/09/25 03:39:28;;;;;;;24.35;10.75;;;;;;;;;;4847020;29;20470;-78
2023/09/25 03:41:58;;;;;;;26.30;13.07;;;;;;;;;;4863400;29;20413;-78
2023/09/25 03:44:31;;;;;;;23.23;11.40;;;;;;;;;;4846354;29;20064;-78
2023/09/25 03:47:03;;;;;;;21.60;11.02;;;;;;;;;;4863108;29;20050;-78
2023/09/25 03:49:34;;;;;;;21.70;11.35;;;;;;;;;;4863243;29;20057;-79
2023/09/25 03:52:04;;;;;;;20.90;11.00;;;;;;;;;;4863370;29;20465;-78
2023/09/25 03:54:36;;;;;;;24.00;12.73;;;;;;;;;;4863045;29;20933;-78
2023/09/25 03:57:08;;;;;;;23.23;12.27;;;;;;;;;;4863682;29;20489;-77
2023/09/25 03:59:38;;;;;;;29.42;12.20;;;;;;;;;;4863552;29;20060;-78
2023/09/25 04:02:08;;;;;;;22.40;11.23;;;;;;;;;;4862993;29;20068;-78
2023/09/25 04:04:38;;;;;;;23.30;11.45;;;;;;;;;;4847045;29;20056;-75
2023/09/25 04:07:10;;;;;;;26.08;11.82;;;;;;;;;;4863527;29;20053;-76
2023/09/25 04:09:42;;;;;;;27.35;11.93;;;;;;;;;;4863015;29;20052;-76
2023/09/25 04:12:14;;;;;;;24.83;11.73;;;;;;;;;;4863009;29;20053;-78
2023/09/25 04:14:44;;;;;;;25.50;11.85;;;;;;;;;;4862866;29;20053;-79
2023/09/25 04:17:16;;;;;;;21.17;11.25;;;;;;;;;;4862892;29;20054;-77
2023/09/25 04:19:51;;;;;;;19.92;11.82;;;;;;;;;;4862501;29;20054;-78
2023/09/25 04:22:22;;;;;;;21.65;11.48;;;;;;;;;;4862736;29;20048;-77
2023/09/25 04:24:52;;;;;;;27.73;11.90;;;;;;;;;;4862488;29;20053;-77
2023/09/25 04:27:25;;;;;;;21.10;11.55;;;;;;;;;;4862780;29;20051;-78
2023/09/25 04:29:57;;;;;;;22.38;12.73;;;;;;;;;;4846545;29;20116;-77
2023/09/25 04:32:27;;;;;;;26.27;11.68;;;;;;;;;;4862679;29;20049;-78
2023/09/25 04:34:57;;;;;;;21.52;12.05;;;;;;;;;;4882656;29;20033;-79
2023/09/25 04:37:30;;;;;;;24.55;11.38;;;;;;;;;;4886100;29;20048;-79
2023/09/25 04:40:04;;;;;;;24.02;12.30;;;;;;;;;;4886188;29;20049;-78
2023/09/25 04:42:36;;;;;;;26.35;11.85;;;;;;;;;;4885788;29;20051;-78
2023/09/25 04:45:13;;;;;;;20.00;12.23;;;;;;;;;;4885719;29;20056;-79
2023/09/25 04:47:48;;;;;;;23.17;11.00;;;;;;;;;;4900354;29;20053;-79
2023/09/25 04:50:21;;;;;;;23.30;12.27;;;;;;;;;;4885548;29;20045;-79
2023/09/25 04:52:52;;;;;;;21.27;11.15;;;;;;;;;;4885491;29;20039;-79
2023/09/25 04:55:23;;;;;;;23.13;11.43;;;;;;;;;;4873056;29;20045;-77
2023/09/25 04:57:53;;;;;;;27.58;13.50;;;;;;;;;;4862119;29;20405;-78
2023/09/25 05:00:27;;;;;;;28.08;11.77;;;;;;;;;;4862205;29;20049;-78
2023/09/25 05:02:59;;;;;;;23.75;11.43;;;;;;;;;;4861952;29;20037;-78
2023/09/25 05:05:32;;;;;;;26.23;12.52;;;;;;;;;;4862151;29;20060;-79
2023/09/25 05:08:06;;;;;;;26.85;13.18;;;;;;;;;;4862211;29;20401;-78
2023/09/25 05:10:36;;;;;;;21.40;12.98;;;;;;;;;;4862035;29;20405;-77
2023/09/25 05:13:09;;;;;;;26.92;12.13;;;;;;;;;;4861716;29;20053;-78
2023/09/25 05:15:41;;;;;;;21.95;12.70;;;;;;;;;;4861864;29;20049;-79
2023/09/25 05:18:14;;;;;;;25.77;12.45;;;;;;;;;;4861323;29;20516;-78
2023/09/25 05:20:46;;;;;;;27.33;12.48;;;;;;;;;;4861276;29;20042;-78
2023/09/25 05:23:20;;;;;;;25.67;12.27;;;;;;;;;;4844412;29;20054;-79
2023/09/25 05:25:59;;;;;;;24.92;13.05;;;;;;;;;;4862194;29;20058;-78
2023/09/25 05:28:31;;;;;;;23.55;11.60;;;;;;;;;;4862055;29;20056;-79
2023/09/25 05:31:02;;;;;;;28.10;13.15;;;;;;;;;;4862073;29;20042;-79
2023/09/25 05:33:32;;;;;;;28.50;12.85;;;;;;;;;;4861511;29;20057;-78
2023/09/25 05:36:03;;;;;;;27.63;12.38;;;;;;;;;;4861760;29;20057;-79
2023/09/25 05:38:36;;;;;;;25.17;12.40;;;;;;;;;;4861297;29;20049;-80
2023/09/25 05:41:09;;;;;;;25.17;12.18;;;;;;;;;;4861603;29;20056;-77
2023/09/25 05:43:40;;;;;;;23.92;12.32;;;;;;;;;;4861707;29;20500;-77
2023/09/25 05:46:09;;;;;;;25.80;12.60;;;;;;;;;;4845730;29;20066;-78
2023/09/25 05:48:43;;;;;;;28.40;12.38;;;;;;;;;;4861324;29;20053;-77
2023/09/25 05:51:14;;;;;;;23.35;12.23;;;;;;;;;;4861652;29;20049;-78
2023/09/25 05:53:47;;;;;;;28.83;12.60;;;;;;;;;;4861421;29;20076;-78
2023/09/25 05:56:17;;;;;;;24.85;13.18;;;;;;;;;;4845473;29;20060;-77
2023/09/25 05:58:47;;;;;;;25.95;12.98;;;;;;;;;;4860957;29;20050;-78
2023/09/25 06:01:18;;;;;;;27.42;14.02;;;;;;;;;;4861206;29;20053;-78
2023/09/25 06:03:51;;;;;;;26.92;13.05;;;;;;;;;;4861336;29;20048;-79
2023/09/25 06:06:24;;;;;;;28.83;12.98;;;;;;;;;;4860989;29;20429;-77
2023/09/25 06:08:59;;;;;;;23.92;13.02;;;;;;;;;;4860740;29;20460;-79
2023/09/25 06:11:31;;;;;;;28.35;13.25;;;;;;;;;;4861431;29;20056;-77
2023/09/25 06:14:04;;;;;;;31.02;13.40;;;;;;;;;;4861243;29;20053;-77
2023/09/25 06:16:42;;;;;;;23.38;12.45;;;;;;;;;;4861228;29;20049;-77
2023/09/25 06:19:14;;;;;;;;;;;;;;;;;;4861390;29;20100;-78
2023/09/25 06:21:45;;;;;;;22.15;12.27;;;;;;;;;;4860759;29;19924;-78
2023/09/25 06:24:16;;;;;;;29.45;12.55;;;;;;;;;;4860865;29;20373;-77
2023/09/25 06:26:46;;;;;;;26.23;12.30;;;;;;;;;;4861253;29;20049;-77
2023/09/25 06:29:21;;;;;;;27.23;13.43;;;;;;;;;;4829118;29;20057;-79
2023/09/25 06:31:51;;;;;;;23.52;13.23;;;;;;;;;;4860871;29;20068;-77
2023/09/25 06:34:30;;;;;;;26.58;13.40;;;;;;;;;;4860856;29;20054;-77
2023/09/25 06:37:00;;;;;;;24.23;13.25;;;;;;;;;;4860651;29;20060;-77
2023/09/25 06:39:35;;;;;;;25.67;13.30;;;;;;;;;;4860668;29;20052;-76
2023/09/25 06:42:05;;;;;;;24.33;13.07;;;;;;;;;;4861407;29;20509;-78
2023/09/25 06:44:38;;;;;;;25.95;12.98;;;;;;;;;;4860994;29;20050;-77
2023/09/25 06:47:08;;;;;;;24.63;12.50;;;;;;;;;;4860759;29;20155;-78
2023/09/25 06:49:39;;;;;;;26.17;13.90;;;;;;;;;;4863612;29;20049;-77
2023/09/25 06:52:09;;;;;;;32.03;13.65;;;;;;;;;;4864436;29;20053;-77
2023/09/25 06:54:40;;;;;;;29.98;13.70;;;;;;;;;;4847068;29;20057;-79
2023/09/25 06:57:10;;;;;;;27.33;13.75;;;;;;;;;;4864297;29;20054;-78
2023/09/25 06:59:40;;;;;;;25.88;13.88;;;;;;;;;;4864581;29;20053;-78
2023/09/25 07:02:14;;;;;;;29.05;12.95;;;;;;;;;;4864342;29;20061;-79
2023/09/25 07:04:50;;;;;;;29.13;14.38;;;;;;;;;;4864009;29;20049;-78
2023/09/25 07:07:24;;;;;;;26.20;13.15;;;;;;;;;;4864376;29;20056;-78
2023/09/25 07:09:54;;;;;;;29.38;13.82;;;;;;;;;;4864266;29;20050;-80
2023/09/25 07:12:28;;;;;;;32.95;15.18;;;;;;;;;;4863702;29;20041;-76
2023/09/25 07:14:59;;;;;;;30.20;14.05;;;;;;;;;;4864047;29;20056;-78
2023/09/25 07:17:31;;;;;;;31.15;14.43;;;;;;;;;;4863901;29;20516;-78
2023/09/25 07:20:01;;;;;;;28.52;13.60;;;;;;;;;;4863671;29;20070;-78
2023/09/25 07:22:33;;;;;;;26.95;14.27;;;;;;;;;;4863797;29;20045;-78
2023/09/25 07:25:06;;;;;;;25.27;13.75;;;;;;;;;;4863211;29;20058;-78
2023/09/25 07:27:38;;;;;;;;;;;;;;;;;;4864468;29;20060;-78
2023/09/25 07:30:10;;;;;;;26.98;13.98;;;;;;;;;;4863913;29;20375;-78
2023/09/25 07:32:42;;;;;;;27.75;14.07;;;;;;;;;;4863423;29;20053;-78
2023/09/25 07:35:15;;;;;;;29.63;14.18;;;;;;;;;;4863340;29;20049;-78
2023/09/25 07:37:48;;;;;;;26.73;13.32;;;;;;;;;;4846430;29;20053;-79
2023/09/25 07:40:22;;;;;;;32.08;14.15;;;;;;;;;;4863933;29;20057;-77
2023/09/25 07:42:52;;;;;;;27.83;13.27;;;;;;;;;;4863523;29;20054;-78
2023/09/25 07:45:25;;;;;;;30.25;13.98;;;;;;;;;;4863888;29;20143;-77
2023/09/25 07:48:00;;;;;;;26.75;13.57;;;;;;;;;;4863556;29;20057;-79
2023/09/25 07:50:34;;;;;;;28.08;13.75;;;;;;;;;;4863212;29;20393;-77
2023/09/25 07:53:05;;;;;;;25.90;13.07;;;;;;;;;;4863017;29;20083;-78
2023/09/25 07:55:35;;;;;;;27.50;13.73;;;;;;;;;;4863226;29;20057;-77
2023/09/25 07:58:07;;;;;;;27.60;14.20;;;;;;;;;;4863336;29;20053;-78
2023/09/25 08:00:40;;;;;;;;;;;;;;;;;;4863210;29;20385;-77
2023/09/25 08:03:15;;;;;;;29.50;13.60;;;;;;;;;;4863117;29;19924;-77
2023/09/25 08:05:45;;;;;;;26.48;14.57;;;;;;;;;;4863328;29;20373;-79
2023/09/25 08:08:17;;;;;;;28.27;13.60;;;;;;;;;;4863005;29;20052;-77
2023/09/25 08:10:48;;;;;;;26.15;14.32;;;;;;;;;;4862925;29;20072;-78
2023/09/25 08:13:20;;;;;;;24.95;13.55;;;;;;;;;;4863198;29;20065;-76
2023/09/25 08:15:51;;;;;;;32.08;13.57;;;;;;;;;;4862689;29;20053;-75
2023/09/25 08:18:23;;;;;;;31.05;13.88;;;;;;;;;;4862515;29;20416;-77
2023/09/25 08:20:56;;;;;;;28.80;14.88;;;;;;;;;;4863187;29;20077;-75
2023/09/25 08:23:30;;;;;;;30.88;14.43;;;;;;;;;;4844960;29;20049;-77
2023/09/25 08:26:00;;;;;;;32.38;15.05;;;;;;;;;;4862972;29;20060;-76
2023/09/25 08:28:32;;;;;;;29.13;14.10;;;;;;;;;;4863024;29;20480;-76
2023/09/25 08:31:04;;;;;;;25.65;13.25;;;;;;;;;;4862296;29;20049;-77
2023/09/25 08:33:36;;;;;;;29.73;14.27;;;;;;;;;;4862299;29;20049;-78
2023/09/25 08:36:13;;;;;;;26.75;13.77;;;;;;;;;;4862733;29;20045;-77
2023/09/25 08:38:44;;;;;;;30.23;13.93;;;;;;;;;;4862804;29;20048;-78
2023/09/25 08:41:17;;;;;;;;;;;;;;;;;;4863054;29;20042;-78
2023/09/25 08:43:48;;;;;;;26.13;13.60;;;;;;;;;;4862769;29;19924;-77
2023/09/25 08:46:19;;;;;;;31.73;14.18;;;;;;;;;;4862775;29;20401;-77
2023/09/25 08:48:56;;;;;;;27.90;13.00;;;;;;;;;;4861787;29;20073;-77
2023/09/25 08:51:34;;;;;;;28.13;14.10;;;;;;;;;;4862213;29;20054;-78
2023/09/25 08:54:06;;;;;;;29.73;15.73;;;;;;;;;;4862338;29;20424;-77
2023/09/25 08:56:40;;;;;;;25.45;14.23;;;;;;;;;;4862343;29;20054;-77
2023/09/25 08:59:12;;;;;;;29.95;14.10;;;;;;;;;;4861973;29;20050;-76
2023/09/25 09:01:46;;;;;;;25.85;14.15;;;;;;;;;;4862392;29;20069;-78
2023/09/25 09:04:23;;;;;;;30.02;13.90;;;;;;;;;;4861960;29;20053;-77
2023/09/25 09:06:54;;;;;;;29.67;13.57;;;;;;;;;;4861872;29;20038;-76
2023/09/25 09:09:26;;;;;;;;;;;;;;;;;;4862435;29;20049;-77
2023/09/25 09:11:59;;;;;;;30.80;14.95;;;;;;;;;;4854240;29;19924;-77
2023/09/25 09:14:37;;;;;;;29.83;15.18;;;;;;;;;;4858097;29;20056;-77
2023/09/25 09:17:10;;;;;;;27.92;13.95;;;;;;;;;;4855714;29;20042;-77
2023/09/25 09:19:50;;;;;;;31.25;14.60;;;;;;;;;;4848369;29;20053;-77
2023/09/25 09:22:27;;;;;;;29.15;15.02;;;;;;;;;;4848475;29;20045;-77
2023/09/25 09:25:01;;;;;;;31.35;13.65;;;;;;;;;;4854279;29;20042;-78
2023/09/25 09:27:33;;;;;;;28.60;13.93;;;;;;;;;;4851832;29;20046;-77
2023/09/25 09:30:21;;;;;;;27.15;14.18;;;;;;;;;;4843334;29;20052;-77
2023/09/25 09:32:52;;;;;;;25.80;13.77;;;;;;;;;;4843200;29;20057;-77
2023/09/25 09:35:25;;;;;;;29.60;14.75;;;;;;;;;;4843174;29;20061;-78
2023/09/25 09:37:57;;;;;;;29.63;14.27;;;;;;;;;;4842841;29;20050;-77
2023/09/25 09:40:30;;;;;;;25.75;14.18;;;;;;;;;;4842843;29;20050;-75
2023/09/25 09:43:04;;;;;;;25.00;13.07;;;;;;;;;;4843225;29;20065;-77
2023/09/25 09:45:37;;;;;;;27.13;14.07;;;;;;;;;;4842911;29;20061;-78
2023/09/25 09:48:11;;;;;;;29.60;14.05;;;;;;;;;;4843476;29;20045;-76
2023/09/25 09:50:52;;;;;;;29.08;14.88;;;;;;;;;;4842767;29;20053;-76
2023/09/25 09:53:22;;;;;;;23.48;13.38;;;;;;;;;;4843321;29;20045;-77
2023/09/25 09:55:58;;;;;;;29.60;14.35;;;;;;;;;;4842507;29;20057;-79
2023/09/25 09:58:31;;;;;;;25.65;14.15;;;;;;;;;;4842791;29;20042;-77
2023/09/25 10:01:04;;;;;;;27.70;13.73;;;;;;;;;;4842739;29;20141;-77
2023/09/25 10:03:36;;;;;;;28.02;15.35;;;;;;;;;;4842978;29;20061;-77
2023/09/25 10:06:09;;;;;;;30.85;13.77;;;;;;;;;;4842650;29;20517;-75
2023/09/25 10:09:00;;;;;;;26.85;14.60;;;;;;;;;;4842359;29;20050;-75
2023/09/25 10:11:33;;;;;;;30.80;15.23;;;;;;;;;;4826591;29;20401;-77
2023/09/25 10:14:04;;;;;;;30.30;13.80;;;;;;;;;;4842991;29;20046;-78
2023/09/25 10:17:06;;;;;;;29.42;14.15;;;;;;;;;;4842401;29;20081;-77
2023/09/25 10:19:40;;;;;;;26.08;14.93;;;;;;;;;;4832847;29;20417;-77
2023/09/25 10:22:19;;;;;;;24.23;13.93;;;;;;;;;;4856214;29;20050;-78
2023/09/25 10:25:19;;;;;;;28.77;13.27;;;;;;;;;;4840264;29;20058;-76
2023/09/25 10:27:52;;;;;;;32.28;15.82;;;;;;;;;;4829397;29;20425;-78
2023/09/25 10:30:23;;;;;;;25.02;13.57;;;;;;;;;;4822767;29;20050;-77
2023/09/25 10:32:57;;;;;;;29.58;15.65;;;;;;;;;;4841384;29;20402;-76
2023/09/25 10:35:49;;;;;;;28.85;14.40;;;;;;;;;;4841069;29;20054;-78
2023/09/25 10:38:28;;;;;;;30.48;13.63;;;;;;;;;;4841423;29;20050;-76
2023/09/25 10:41:07;;;;;;;28.17;14.60;;;;;;;;;;4841900;29;20050;-76
2023/09/25 10:43:39;;;;;;;25.70;14.18;;;;;;;;;;4841956;29;20061;-77
2023/09/25 10:46:11;;;;;;;25.23;13.05;;;;;;;;;;4842276;29;20057;-77
2023/09/25 10:48:41;;;;;;;32.60;14.75;;;;;;;;;;4825982;29;20062;-77
2023/09/25 10:51:15;;;;;;;30.15;14.52;;;;;;;;;;4842086;29;20042;-79
2023/09/25 10:53:49;;;;;;;32.58;15.45;;;;;;;;;;4842282;29;20054;-79
2023/09/25 10:56:20;;;;;;;26.05;14.35;;;;;;;;;;4842064;29;20046;-77
2023/09/25 10:58:53;;;;;;;30.83;14.30;;;;;;;;;;4842382;29;20061;-78
2023/09/25 11:01:29;;;;;;;26.25;13.68;;;;;;;;;;4842244;29;20113;-79
2023/09/25 11:04:03;;;;;;;23.15;14.18;;;;;;;;;;4842317;29;20054;-77
2023/09/25 11:06:33;;;;;;;27.55;14.57;;;;;;;;;;4842128;29;20053;-77
2023/09/25 11:09:05;;;;;;;;;;;;;;;;;;4842397;29;20050;-79
2023/09/25 11:11:36;;;;;;;26.77;14.00;;;;;;;;;;4842438;29;19931;-77
2023/09/25 11:14:08;;;;;;;28.23;13.90;;;;;;;;;;4842109;29;20054;-79
2023/09/25 11:16:39;;;;;;;29.17;15.07;;;;;;;;;;4842320;29;20045;-78
2023/09/25 11:19:12;;;;;;;27.25;14.05;;;;;;;;;;4841884;29;20069;-78
2023/09/25 11:21:50;;;;;;;32.08;13.82;;;;;;;;;;4842092;29;20042;-78
2023/09/25 11:24:27;;;;;;;25.55;13.50;;;;;;;;;;4841230;29;20521;-78
2023/09/25 11:26:58;;;;;;;25.10;12.80;;;;;;;;;;4841956;29;20061;-78
2023/09/25 11:29:31;;;;;;;27.77;12.98;;;;;;;;;;4842266;29;20061;-79
2023/09/25 11:32:04;;;;;;;23.35;13.93;;;;;;;;;;4842310;29;20058;-77
2023/09/25 11:34:39;;;;;;;26.02;14.07;;;;;;;;;;4842180;29;20061;-79
2023/09/25 11:37:20;;;;;;;27.35;14.43;;;;;;;;;;4844745;29;20054;-78
2023/09/25 11:39:50;;;;;;;30.58;15.80;;;;;;;;;;4845271;29;20053;-80
2023/09/25 11:42:23;;;;;;;33.75;15.65;;;;;;;;;;4845169;29;20054;-79
2023/09/25 11:44:58;;;;;;;26.85;14.00;;;;;;;;;;4849246;29;20061;-78
2023/09/25 11:47:29;;;;;;;25.80;14.93;;;;;;;;;;4868452;29;20050;-78
2023/09/25 11:50:00;;;;;;;25.00;14.15;;;;;;;;;;4868330;29;20052;-77
2023/09/25 11:52:34;;;;;;;28.90;16.67;;;;;;;;;;4867941;29;20048;-78
2023/09/25 11:55:06;;;;;;;32.53;18.90;;;;;;;;;;4866911;29;20042;-78
2023/09/25 11:57:37;;;;;;;32.75;17.23;;;;;;;;;;4867566;29;20040;-79
2023/09/25 12:00:09;;;;;;;26.00;16.50;;;;;;;;;;4868174;29;20036;-78
2023/09/25 12:02:48;;;;;;;32.05;16.45;;;;;;;;;;4868028;29;20050;-78
2023/09/25 12:05:22;;;;;;;29.13;15.82;;;;;;;;;;4868253;29;20048;-78
2023/09/25 12:07:52;;;;;;;26.67;14.05;;;;;;;;;;4868256;29;20029;-78
2023/09/25 12:10:23;;;;;;;18.33;10.05;;;;;;;;;;4857684;29;20042;-79
2023/09/25 12:12:55;;;;;;;21.55;10.80;;;;;;;;;;4844748;29;20073;-79
2023/09/25 12:15:27;;;;;;;15.38;8.13;;;;;;;;;;4844831;29;20042;-78
2023/09/25 12:17:59;;;;;;;14.20;8.82;;;;;;;;;;4844424;29;20042;-79
2023/09/25 12:20:41;;;;;;;13.27;8.75;;;;;;;;;;4844526;29;20046;-79
2023/09/25 12:23:12;;;;;;;20.80;8.38;;;;;;;;;;4844836;29;20046;-78
2023/09/25 12:25:47;;;;;;;13.50;9.05;;;;;;;;;;4844064;29;20060;-79
2023/09/25 12:28:17;;;;;;;18.45;8.57;;;;;;;;;;4844857;29;20050;-80
2023/09/25 12:30:50;;;;;;;14.32;8.43;;;;;;;;;;4844232;29;20046;-78
2023/09/25 12:33:21;;;;;;;13.35;8.32;;;;;;;;;;4844550;29;20370;-79
2023/09/25 12:35:52;;;;;;;15.07;8.55;;;;;;;;;;4843974;29;20061;-78
2023/09/25 12:38:24;;;;;;;14.68;8.77;;;;;;;;;;4844486;29;20053;-77
2023/09/25 12:40:54;;;;;;;16.63;9.55;;;;;;;;;;4844569;29;20061;-77
2023/09/25 12:43:26;;;;;;;14.68;9.35;;;;;;;;;;4844781;29;20050;-79
2023/09/25 12:45:57;;;;;;;14.52;9.07;;;;;;;;;;4844129;29;20053;-79
2023/09/25 12:48:29;;;;;;;12.75;9.13;;;;;;;;;;4843810;29;20081;-79
2023/09/25 12:51:25;;;;;;;17.25;9.63;;;;;;;;;;4844236;29;20049;-78
2023/09/25 12:53:56;;;;;;;12.13;7.97;;;;;;;;;;4843978;29;20045;-77
2023/09/25 12:56:28;;;;;;;13.65;9.40;;;;;;;;;;4843537;29;20402;-77
2023/09/25 12:59:02;;;;;;;12.43;8.40;;;;;;;;;;4843631;29;20050;-78
2023/09/25 13:01:32;;;;;;;14.50;9.07;;;;;;;;;;4844306;29;20053;-78
2023/09/25 13:04:06;;;;;;;14.73;8.45;;;;;;;;;;4843814;29;20049;-80
2023/09/25 13:06:40;;;;;;;13.68;8.60;;;;;;;;;;4843695;29;20058;-79
2023/09/25 13:09:12;;;;;;;14.27;8.13;;;;;;;;;;4843024;29;20061;-78
2023/09/25 13:11:42;;;;;;;18.38;8.57;;;;;;;;;;4843750;29;20053;-78
2023/09/25 13:14:15;;;;;;;14.90;8.43;;;;;;;;;;4843412;29;20053;-78
2023/09/25 13:16:46;;;;;;;16.38;8.77;;;;;;;;;;4843256;29;20045;-78
2023/09/25 13:19:17;;;;;;;13.43;8.15;;;;;;;;;;4843698;29;20057;-79
2023/09/25 13:21:47;;;;;;;11.48;7.60;;;;;;;;;;4843785;29;20046;-79
2023/09/25 13:24:22;;;;;;;;;;;;;;;;;;4857622;29;20058;-81
2023/09/25 13:26:53;;;;;;;16.58;8.18;;;;;;;;;;4843130;29;19931;-80
2023/09/25 13:29:23;;;;;;;13.40;8.45;;;;;;;;;;4843225;29;20050;-79
2023/09/25 13:31:55;;;;;;;12.40;7.53;;;;;;;;;;4843187;29;20038;-81
2023/09/25 13:34:27;;;;;;;13.93;7.85;;;;;;;;;;4843509;29;20057;-80
2023/09/25 13:37:00;;;;;;;11.15;7.35;;;;;;;;;;4842985;29;20065;-82
2023/09/25 13:39:34;;;;;;;12.50;7.68;;;;;;;;;;4843403;29;20054;-81
2023/09/25 13:42:06;;;;;;;13.07;7.60;;;;;;;;;;4843379;29;20065;-81
2023/09/25 13:44:38;;;;;;;11.55;8.27;;;;;;;;;;4842697;29;20145;-81
2023/09/25 13:47:15;;;;;;;14.90;8.13;;;;;;;;;;4843070;29;20046;-80
2023/09/25 13:49:46;;;;;;;12.65;7.65;;;;;;;;;;4842549;29;20058;-82
2023/09/25 13:52:17;;;;;;;15.65;8.45;;;;;;;;;;4856780;29;20520;-81
2023/09/25 13:54:48;;;;;;;13.40;8.05;;;;;;;;;;4842543;29;20065;-81
2023/09/25 13:57:22;;;;;;;11.57;7.88;;;;;;;;;;4842804;29;20060;-81
2023/09/25 13:59:53;;;;;;;13.18;8.60;;;;;;;;;;4856406;29;20057;-80
2023/09/25 14:02:27;;;;;;;15.82;8.82;;;;;;;;;;4843119;29;20057;-81
2023/09/25 14:04:57;;;;;;;19.00;8.68;;;;;;;;;;4842344;29;20057;-83
2023/09/25 14:07:34;;;;;;;17.95;9.60;;;;;;;;;;4842269;29;20065;-80
2023/09/25 14:10:04;;;;;;;13.15;8.93;;;;;;;;;;4842624;29;20038;-81
2023/09/25 14:12:34;;;;;;;16.08;9.60;;;;;;;;;;4842950;29;20397;-84
2023/09/25 14:15:12;;;;;;;12.02;8.80;;;;;;;;;;4843010;29;20056;-80
2023/09/25 14:17:44;;;;;;;14.80;9.18;;;;;;;;;;4842635;29;20057;-81
2023/09/25 14:20:18;;;;;;;16.77;7.97;;;;;;;;;;4842994;29;20390;-82
2023/09/25 14:22:49;;;;;;;12.35;8.38;;;;;;;;;;4842837;29;20398;-81
2023/09/25 14:25:20;;;;;;;14.75;8.48;;;;;;;;;;4842315;29;20054;-79
2023/09/25 14:27:52;;;;;;;13.50;8.52;;;;;;;;;;4826787;29;20054;-82
2023/09/25 14:30:25;;;;;;;14.75;8.55;;;;;;;;;;4842834;29;20405;-82
2023/09/25 14:32:57;;;;;;;14.50;8.80;;;;;;;;;;4842336;29;20050;-81
2023/09/25 14:35:33;;;;;;;15.20;8.23;;;;;;;;;;4842209;29;20054;-82
2023/09/25 14:38:05;;;;;;;13.77;8.50;;;;;;;;;;4842235;29;20052;-81
2023/09/25 14:40:36;;;;;;;11.48;7.90;;;;;;;;;;4842731;29;20054;-80
2023/09/25 14:43:08;;;;;;;13.63;8.23;;;;;;;;;;4842003;29;20042;-82
2023/09/25 14:45:42;;;;;;;14.80;8.55;;;;;;;;;;4841977;29;20149;-80
2023/09/25 14:48:18;;;;;;;15.98;8.75;;;;;;;;;;4842244;29;20046;-82
2023/09/25 14:50:48;;;;;;;13.57;8.95;;;;;;;;;;4841972;29;20053;-82
2023/09/25 14:53:20;;;;;;;12.80;8.60;;;;;;;;;;4842248;29;20370;-83
2023/09/25 14:55:51;;;;;;;18.38;9.05;;;;;;;;;;4842394;29;20046;-81
2023/09/25 14:58:27;;;;;;;13.35;8.50;;;;;;;;;;4842430;29;20053;-82
2023/09/25 15:00:58;;;;;;;13.57;8.95;;;;;;;;;;4842912;29;20053;-80